Thurston, Nebraska
Current Conditions -  °F | °C
As of 1:35 PM on Friday 24 Oct 2014 (Local Time) from KLCG Reporting Station
Clear Clear  
Wind Chill: 70°   Ceiling: Unl
Heat Index: 70°   Visibility: 10mi
Dew Point: 48°   Wind: 3mph
Humidity: 46%   Direction: 290°WNW
Pressure: 29.92"   Gusts: NA
Location:  42.18°N, 96.7°W
Report Text: KLCG 241835Z AUTO 29003KT 10SM CLR 21/09 A2992 RMK AO2 T02100088
Loading
Personal Weather Stations






























Interactive Weather Map
Tropical Storm Tracking
New forecast layout! Learn more

10-Day Weather Forecast

Advertisements
Track Severe Weather on mobile